Time;durP1;ratioP1;P1;durP2;ratioP2;P2;SDS_P1;SDS_P2;PMS_P1;PMS_P2;Temp;Humidity;BMP_temperature;BMP_pressure;BME280_temperature;BME280_humidity;BME280_pressure;Samples;Min_cycle;Max_cycle;Signal;HPM_P1;HPM_P2
2021/05/29 00:00:53;;;;;;;11.70;9.65;;;18.10;98.20;;;;;;5100077;28;20043;-85
2021/05/29 00:03:19;;;;;;;11.80;9.38;;;18.20;98.10;;;;;;5073713;28;20078;-85
2021/05/29 00:05:45;;;;;;;13.90;10.07;;;18.20;98.10;;;;;;5071814;28;20036;-84
2021/05/29 00:08:12;;;;;;;12.18;9.55;;;18.20;98.00;;;;;;5071789;28;20028;-84
2021/05/29 00:10:41;;;;;;;12.15;9.80;;;18.20;97.90;;;;;;5085685;28;20028;-85
2021/05/29 00:13:07;;;;;;;12.48;9.90;;;18.20;97.90;;;;;;5088818;28;20471;-84
2021/05/29 00:15:33;;;;;;;12.27;9.80;;;18.20;97.80;;;;;;5079550;28;20077;-85
2021/05/29 00:18:00;;;;;;;10.82;9.25;;;18.20;97.90;;;;;;5072607;28;20042;-84
2021/05/29 00:20:26;;;;;;;13.18;9.93;;;18.20;97.80;;;;;;5081145;28;20053;-82
2021/05/29 00:22:51;;;;;;;12.75;10.30;;;18.20;97.60;;;;;;5071618;28;20520;-84
2021/05/29 00:25:17;;;;;;;13.05;10.35;;;18.10;97.60;;;;;;5073139;28;20028;-84
2021/05/29 00:27:43;;;;;;;15.02;9.85;;;18.10;97.70;;;;;;5085106;28;20055;-84
2021/05/29 00:30:13;;;;;;;11.18;9.25;;;18.00;97.80;;;;;;5088528;28;20055;-84
2021/05/29 00:32:39;;;;;;;15.90;11.02;;;18.00;97.90;;;;;;5087683;28;20111;-85
2021/05/29 00:35:07;;;;;;;14.60;10.98;;;18.00;97.90;;;;;;5088987;28;20382;-85
2021/05/29 00:37:34;;;;;;;17.02;12.55;;;18.00;98.00;;;;;;5091987;28;20036;-85
2021/05/29 00:39:59;;;;;;;18.08;12.10;;;18.00;98.00;;;;;;5074954;28;20067;-85
2021/05/29 00:42:26;;;;;;;17.85;12.73;;;18.00;98.00;;;;;;5075930;28;20048;-83
2021/05/29 00:44:54;;;;;;;16.05;12.88;;;18.00;98.20;;;;;;5080711;28;20024;-84
2021/05/29 00:47:24;;;;;;;21.77;16.75;;;18.00;98.30;;;;;;5075721;28;20029;-85
2021/05/29 00:49:51;;;;;;;19.00;13.10;;;18.00;98.40;;;;;;5075956;28;20029;-85
2021/05/29 00:52:19;;;;;;;17.23;13.23;;;18.00;98.50;;;;;;5074834;28;20090;-84
2021/05/29 00:54:45;;;;;;;16.10;12.40;;;17.90;98.40;;;;;;5074879;28;20805;-85
2021/05/29 00:57:12;;;;;;;17.77;13.02;;;18.00;98.50;;;;;;5074606;28;20020;-84
2021/05/29 00:59:38;;;;;;;15.52;12.48;;;17.90;98.50;;;;;;5074774;28;20035;-84
2021/05/29 01:02:09;;;;;;;15.90;12.65;;;18.00;98.40;;;;;;5076479;28;20044;-84
2021/05/29 01:04:34;;;;;;;15.88;12.18;;;18.00;98.50;;;;;;5074818;28;20115;-84
2021/05/29 01:07:02;;;;;;;16.27;12.80;;;18.00;98.40;;;;;;5075087;28;20422;-84
2021/05/29 01:09:28;;;;;;;14.80;11.90;;;17.90;98.40;;;;;;5074706;28;20024;-85
2021/05/29 01:11:55;;;;;;;14.57;12.13;;;17.90;98.50;;;;;;5076633;28;20028;-84
2021/05/29 01:14:21;;;;;;;15.88;12.85;;;17.90;98.40;;;;;;5074595;28;20025;-84
2021/05/29 01:17:03;;;;;;;18.20;14.25;;;17.90;98.40;;;;;;5075111;28;20028;-85
2021/05/29 01:19:30;;;;;;;29.85;21.02;;;17.80;98.20;;;;;;5075571;28;20094;-84
2021/05/29 01:21:57;;;;;;;26.50;20.38;;;17.70;98.40;;;;;;5075021;28;20078;-84
2021/05/29 01:24:26;;;;;;;54.35;30.95;;;17.60;98.90;;;;;;5089102;28;20028;-84
2021/05/29 01:26:53;;;;;;;29.08;21.65;;;17.60;99.10;;;;;;5074536;28;20021;-84
2021/05/29 01:29:19;;;;;;;27.73;20.17;;;17.60;99.20;;;;;;5075840;28;20028;-84
2021/05/29 01:31:59;;;;;;;30.25;19.80;;;17.60;99.50;;;;;;5074430;28;20039;-84
2021/05/29 01:34:28;;;;;;;24.73;17.05;;;17.60;99.80;;;;;;5076033;28;20078;-83
2021/05/29 01:36:53;;;;;;;25.05;18.13;;;17.60;99.70;;;;;;5075299;28;20059;-83
2021/05/29 01:39:20;;;;;;;22.52;16.08;;;17.70;99.80;;;;;;5074366;28;20056;-84
2021/05/29 01:41:46;;;;;;;25.58;16.00;;;17.70;99.70;;;;;;5075641;28;20020;-84
2021/05/29 01:44:12;;;;;;;22.25;15.48;;;17.60;99.60;;;;;;5075918;28;20029;-84
2021/05/29 01:46:38;;;;;;;21.95;17.50;;;17.60;99.60;;;;;;5089105;28;20044;-83
2021/05/29 01:49:03;;;;;;;23.48;17.65;;;17.60;99.60;;;;;;5073994;28;20055;-83
2021/05/29 01:51:29;;;;;;;21.98;16.95;;;17.60;99.60;;;;;;5074953;28;20466;-84
2021/05/29 01:53:55;;;;;;;23.13;17.73;;;17.60;99.60;;;;;;5084540;28;20127;-83
2021/05/29 01:56:21;;;;;;;25.35;18.15;;;17.60;99.70;;;;;;5074256;28;20035;-83
2021/05/29 01:58:47;;;;;;;23.90;17.23;;;17.60;99.80;;;;;;5087890;28;20103;-83
2021/05/29 02:01:14;;;;;;;22.92;17.45;;;17.60;99.90;;;;;;5074294;28;20032;-84
2021/05/29 02:03:44;;;;;;;24.42;17.30;;;17.70;99.90;;;;;;5079376;28;20050;-84
2021/05/29 02:06:10;;;;;;;25.45;18.45;;;17.70;99.90;;;;;;5083383;28;20029;-84
2021/05/29 02:08:36;;;;;;;26.60;20.52;;;17.70;99.90;;;;;;5073009;28;20017;-83
2021/05/29 02:11:03;;;;;;;29.73;21.23;;;17.70;99.90;;;;;;5075229;28;20501;-83
2021/05/29 02:13:32;;;;;;;34.50;22.55;;;17.80;99.90;;;;;;5074512;28;20375;-84
2021/05/29 02:15:59;;;;;;;31.73;22.08;;;17.80;99.90;;;;;;5074482;28;20017;-83
2021/05/29 02:18:25;;;;;;;35.95;21.90;;;17.80;99.90;;;;;;5073516;28;20029;-82
2021/05/29 02:21:05;;;;;;;38.40;23.35;;;17.80;99.90;;;;;;5073568;28;20372;-83
2021/05/29 02:23:38;;;;;;;31.65;21.08;;;17.80;99.90;;;;;;5084079;28;20036;-83
2021/05/29 02:26:12;;;;;;;32.15;21.73;;;17.90;99.90;;;;;;5076823;28;20143;-84
2021/05/29 02:28:40;;;;;;;28.57;20.10;;;18.00;99.90;;;;;;5073623;28;20024;-83
2021/05/29 02:31:07;;;;;;;35.65;23.65;;;18.00;99.90;;;;;;5089576;28;20036;-83
2021/05/29 02:33:34;;;;;;;37.97;23.05;;;18.10;99.90;;;;;;5084835;28;20126;-84
2021/05/29 02:36:01;;;;;;;71.40;38.05;;;18.10;99.90;;;;;;5073291;28;20410;-83
2021/05/29 02:38:28;;;;;;;74.57;40.35;;;18.10;99.90;;;;;;5074549;28;20100;-81
2021/05/29 02:40:57;;;;;;;66.97;38.42;;;18.20;99.90;;;;;;5074163;28;20032;-83
2021/05/29 02:43:23;;;;;;;65.97;36.15;;;18.20;99.90;;;;;;5074747;28;20032;-83
2021/05/29 02:45:49;;;;;;;59.00;33.13;;;18.20;99.80;;;;;;5084412;28;20033;-83
2021/05/29 02:48:15;;;;;;;53.38;31.27;;;18.20;99.60;;;;;;5075139;28;20394;-83
2021/05/29 02:50:42;;;;;;;44.35;28.40;;;18.20;99.60;;;;;;5072508;28;20033;-84
2021/05/29 02:53:10;;;;;;;50.15;29.08;;;18.20;99.70;;;;;;5074246;28;20107;-83
2021/05/29 02:55:37;;;;;;;43.92;27.98;;;18.20;99.70;;;;;;5072772;28;20020;-84
2021/05/29 02:58:03;;;;;;;35.72;23.85;;;18.30;99.70;;;;;;5078604;28;20103;-82
2021/05/29 03:00:31;;;;;;;41.67;26.73;;;18.30;99.70;;;;;;5075289;28;20028;-83
2021/05/29 03:03:02;;;;;;;35.97;24.13;;;18.30;99.50;;;;;;5080455;28;20032;-84
2021/05/29 03:05:29;;;;;;;37.78;24.77;;;18.30;99.40;;;;;;5072574;28;20137;-83
2021/05/29 03:07:55;;;;;;;35.15;23.17;;;18.40;99.50;;;;;;5072534;28;20024;-84
2021/05/29 03:10:22;;;;;;;30.05;21.33;;;18.40;99.50;;;;;;5073763;28;20044;-84
2021/05/29 03:12:52;;;;;;;28.20;20.00;;;18.50;99.40;;;;;;5071826;28;20017;-83
2021/05/29 03:15:22;;;;;;;26.27;19.50;;;18.50;99.40;;;;;;5072547;28;20025;-83
2021/05/29 03:17:47;;;;;;;30.50;21.55;;;18.60;99.40;;;;;;5072290;28;20087;-84
2021/05/29 03:20:17;;;;;;;34.28;22.95;;;18.60;99.00;;;;;;5072459;28;20083;-84
2021/05/29 03:22:43;;;;;;;31.42;21.75;;;18.50;98.70;;;;;;5071355;28;20029;-83
2021/05/29 03:25:10;;;;;;;31.45;21.95;;;18.50;99.00;;;;;;5072286;28;20021;-83
2021/05/29 03:27:36;;;;;;;35.70;24.13;;;18.60;98.80;;;;;;5072031;28;20530;-82
2021/05/29 03:30:10;;;;;;;30.00;21.38;;;18.60;98.60;;;;;;5073582;28;20048;-83
2021/05/29 03:32:37;;;;;;;33.53;23.15;;;18.60;98.60;;;;;;5086170;28;20038;-82
2021/05/29 03:35:04;;;;;;;33.85;22.40;;;18.60;98.70;;;;;;5085648;28;20036;-82
2021/05/29 03:37:36;;;;;;;35.67;21.90;;;18.60;98.60;;;;;;5073340;28;20075;-85
2021/05/29 03:40:07;;;;;;;32.53;22.45;;;18.60;98.60;;;;;;5073233;28;20024;-81
2021/05/29 03:42:34;;;;;;;35.53;23.92;;;18.50;98.60;;;;;;5079542;28;20097;-83
2021/05/29 03:44:59;;;;;;;31.83;22.40;;;18.60;98.70;;;;;;5087379;28;20054;-83
2021/05/29 03:47:25;;;;;;;33.63;23.17;;;18.50;98.60;;;;;;5071853;28;20024;-82
2021/05/29 03:49:51;;;;;;;32.97;23.42;;;18.50;98.20;;;;;;5071656;28;20482;-83
2021/05/29 03:52:17;;;;;;;35.15;23.35;;;18.50;98.10;;;;;;5072017;28;20036;-83
2021/05/29 03:54:43;;;;;;;35.08;22.67;;;18.50;97.90;;;;;;5071218;28;20115;-83
2021/05/29 03:57:08;;;;;;;31.65;22.98;;;18.50;98.00;;;;;;5071948;28;20055;-84
2021/05/29 03:59:34;;;;;;;30.08;21.20;;;18.40;97.90;;;;;;5071848;28;20033;-85
2021/05/29 04:02:00;;;;;;;31.63;20.95;;;18.50;98.10;;;;;;5072263;28;20028;-86
2021/05/29 04:04:26;;;;;;;31.30;20.67;;;18.50;97.90;;;;;;5071424;28;20433;-82
2021/05/29 04:06:54;;;;;;;25.92;19.90;;;18.60;98.00;;;;;;5072995;28;20093;-83
2021/05/29 04:09:19;;;;;;;30.98;20.85;;;18.60;98.20;;;;;;5070857;28;20021;-83
2021/05/29 04:11:45;;;;;;;28.15;19.70;;;18.70;98.00;;;;;;5071694;28;20031;-84
2021/05/29 04:14:11;;;;;;;28.80;20.80;;;18.80;97.90;;;;;;5072885;28;20030;-84
2021/05/29 04:16:37;;;;;;;25.85;18.35;;;18.90;97.70;;;;;;5081598;28;20020;-84
2021/05/29 04:19:03;;;;;;;28.60;19.38;;;19.00;97.80;;;;;;5076023;28;20056;-84
2021/05/29 04:21:29;;;;;;;25.23;18.95;;;19.10;97.40;;;;;;5071575;28;20356;-84
2021/05/29 04:23:55;;;;;;;22.92;17.67;;;19.30;97.00;;;;;;5071325;28;20039;-84
2021/05/29 04:26:21;;;;;;;20.58;16.75;;;19.30;96.40;;;;;;5071268;28;20024;-84
2021/05/29 04:28:48;;;;;;;20.60;16.17;;;19.40;96.00;;;;;;5070952;28;20095;-83
2021/05/29 04:31:13;;;;;;;18.13;15.32;;;19.40;95.90;;;;;;5074019;28;20036;-83
2021/05/29 04:33:39;;;;;;;17.90;15.10;;;19.50;95.60;;;;;;5090518;28;20027;-83
2021/05/29 04:36:05;;;;;;;17.73;13.95;;;19.60;95.80;;;;;;5096727;28;20316;-78
2021/05/29 04:38:31;;;;;;;16.23;12.93;;;19.80;96.50;;;;;;5094407;28;20055;-80
2021/05/29 04:40:57;;;;;;;15.70;12.77;;;20.20;96.10;;;;;;5089563;28;20563;-80
2021/05/29 04:43:23;;;;;;;16.38;12.90;;;20.50;94.60;;;;;;5087265;28;20036;-80
2021/05/29 04:45:48;;;;;;;12.85;11.45;;;20.60;93.80;;;;;;5080579;28;20024;-80
2021/05/29 04:48:17;;;;;;;14.02;11.77;;;20.70;93.00;;;;;;5075597;28;20036;-81
2021/05/29 04:53:27;;;;;;;11.85;10.57;;;21.00;91.80;;;;;;5079582;28;20038;-80
2021/05/29 04:55:53;;;;;;;13.52;10.30;;;21.30;91.60;;;;;;5074538;28;20029;-80
2021/05/29 04:58:22;;;;;;;12.93;10.43;;;21.50;91.00;;;;;;5072070;28;20062;-80
2021/05/29 05:00:48;;;;;;;13.80;11.35;;;22.00;90.40;;;;;;5088339;28;20114;-80
2021/05/29 05:03:14;;;;;;;13.70;10.25;;;22.00;87.80;;;;;;5107951;28;20430;-80
2021/05/29 05:05:40;;;;;;;12.38;10.98;;;22.10;86.80;;;;;;5108753;28;20015;-76
2021/05/29 05:08:06;;;;;;;11.43;10.23;;;22.00;86.10;;;;;;5106125;28;20020;-80
2021/05/29 05:10:33;;;;;;;10.80;9.60;;;22.00;85.10;;;;;;5079388;28;20029;-80
2021/05/29 05:12:59;;;;;;;12.90;10.40;;;22.00;84.90;;;;;;5110121;28;20023;-89
2021/05/29 05:15:24;;;;;;;11.65;9.52;;;22.00;83.70;;;;;;5109551;28;20054;-85
2021/05/29 05:17:50;;;;;;;11.23;8.88;;;21.90;82.80;;;;;;5105467;28;20077;-86
2021/05/29 05:20:17;;;;;;;9.85;8.43;;;21.60;82.40;;;;;;5107166;28;20058;-86
2021/05/29 05:22:44;;;;;;;9.80;8.25;;;21.40;82.30;;;;;;5098466;28;20024;-88
2021/05/29 05:25:10;;;;;;;10.10;8.82;;;21.10;82.10;;;;;;5105259;28;20437;-89
2021/05/29 05:27:36;;;;;;;10.82;9.25;;;20.90;82.90;;;;;;5093799;28;20044;-87
2021/05/29 05:30:04;;;;;;;10.60;9.20;;;20.80;83.40;;;;;;5109877;28;20056;-88
2021/05/29 05:32:30;;;;;;;12.55;10.05;;;20.60;83.60;;;;;;5096336;28;20095;-90
2021/05/29 05:34:56;;;;;;;11.50;9.43;;;20.50;84.50;;;;;;5091652;28;20045;-86
2021/05/29 05:37:21;;;;;;;11.85;10.18;;;20.40;85.20;;;;;;5077639;28;20028;-75
2021/05/29 05:39:47;;;;;;;11.27;9.02;;;20.30;86.00;;;;;;5074772;28;20487;-77
2021/05/29 05:42:13;;;;;;;11.77;9.23;;;20.20;86.60;;;;;;5073787;28;20150;-77
2021/05/29 05:44:38;;;;;;;14.10;11.35;;;20.20;87.10;;;;;;5075807;28;20025;-77
2021/05/29 05:47:04;;;;;;;11.93;9.30;;;20.20;87.70;;;;;;5081266;28;20024;-78
2021/05/29 05:49:30;;;;;;;12.55;8.50;;;20.20;87.90;;;;;;5080066;28;20069;-77
2021/05/29 05:51:55;;;;;;;9.55;8.32;;;20.20;88.00;;;;;;5113860;28;20169;-82
2021/05/29 05:54:21;;;;;;;12.07;8.00;;;20.20;88.00;;;;;;5113550;28;20023;-80
2021/05/29 05:56:47;;;;;;;10.40;8.35;;;20.20;88.30;;;;;;5110967;28;20111;-80
2021/05/29 05:59:12;;;;;;;10.55;8.65;;;20.30;88.70;;;;;;5113038;28;20587;-80
2021/05/29 06:01:38;;;;;;;10.90;7.97;;;20.40;89.20;;;;;;5111976;28;20039;-79
2021/05/29 06:04:04;;;;;;;11.38;7.60;;;20.50;88.40;;;;;;5096068;28;20052;-78
2021/05/29 06:06:30;;;;;;;9.82;7.47;;;20.60;88.20;;;;;;5091389;28;20070;-77
2021/05/29 06:08:56;;;;;;;12.88;10.68;;;20.60;87.80;;;;;;5093126;28;20025;-81
2021/05/29 06:11:22;;;;;;;9.43;7.90;;;20.80;87.60;;;;;;5079102;28;20040;-79
2021/05/29 06:19:23;;;;;;;8.77;6.80;;;21.10;86.10;;;;;;5069079;28;20045;-80
2021/05/29 06:21:51;;;;;;;8.70;7.20;;;21.20;85.30;;;;;;5077160;28;20123;-79
2021/05/29 06:24:22;;;;;;;8.05;6.15;;;21.30;84.80;;;;;;5075205;28;20089;-79
2021/05/29 06:26:49;;;;;;;7.70;5.88;;;21.40;83.90;;;;;;5076582;28;20510;-79
2021/05/29 06:29:18;;;;;;;8.35;6.40;;;21.50;83.00;;;;;;5090275;28;20021;-79
2021/05/29 06:31:45;;;;;;;10.77;5.93;;;21.50;82.60;;;;;;5072825;28;20040;-78
2021/05/29 06:34:14;;;;;;;8.60;7.03;;;21.50;82.10;;;;;;5080866;28;20040;-79
2021/05/29 06:36:40;;;;;;;7.70;6.22;;;21.60;82.40;;;;;;5076456;28;20119;-79
2021/05/29 06:39:07;;;;;;;7.63;5.97;;;21.70;82.20;;;;;;5079739;28;20067;-79
2021/05/29 06:41:33;;;;;;;13.07;6.18;;;21.70;80.90;;;;;;5077626;28;20032;-79
2021/05/29 06:44:00;;;;;;;8.25;6.20;;;21.70;80.60;;;;;;5088560;28;20093;-80
2021/05/29 06:46:26;;;;;;;7.78;6.18;;;21.80;81.30;;;;;;5087871;28;20107;-82
2021/05/29 06:48:53;;;;;;;8.93;5.68;;;22.00;81.80;;;;;;5093214;28;20185;-81
2021/05/29 06:51:30;;;;;;;6.38;5.20;;;22.40;81.40;;;;;;5091823;28;20028;-81
2021/05/29 06:53:56;;;;;;;7.55;5.55;;;22.70;79.40;;;;;;5096798;28;20073;-81
2021/05/29 06:59:06;;;;;;;6.50;5.00;;;23.50;77.50;;;;;;5092913;28;20059;-81
2021/05/29 07:01:32;;;;;;;6.80;4.68;;;23.90;76.30;;;;;;5093456;28;20403;-81
2021/05/29 07:03:57;;;;;;;6.38;4.60;;;24.20;74.80;;;;;;5090819;28;20032;-81
2021/05/29 07:06:23;;;;;;;7.30;4.93;;;24.30;73.40;;;;;;5088830;28;20016;-81
2021/05/29 07:08:55;;;;;;;7.10;5.22;;;24.30;72.20;;;;;;5095223;28;20069;-80
2021/05/29 07:11:20;;;;;;;6.72;5.13;;;24.30;71.70;;;;;;5074141;28;20478;-79
2021/05/29 07:13:47;;;;;;;6.30;4.50;;;24.20;71.60;;;;;;5072876;28;20028;-79
2021/05/29 07:16:13;;;;;;;6.20;5.50;;;24.00;71.60;;;;;;5073822;28;20031;-79
2021/05/29 07:18:45;;;;;;;6.07;5.13;;;23.70;72.00;;;;;;5071657;28;20053;-79
2021/05/29 07:21:13;;;;;;;7.80;5.68;;;23.50;72.60;;;;;;5071887;28;20024;-79
2021/05/29 07:23:38;;;;;;;8.75;6.00;;;23.20;73.80;;;;;;5072666;28;20382;-79
2021/05/29 07:26:05;;;;;;;7.07;6.30;;;22.90;74.30;;;;;;5075138;28;20028;-79
2021/05/29 07:28:31;;;;;;;8.90;6.18;;;22.60;74.80;;;;;;5073292;28;20035;-79
2021/05/29 07:30:57;;;;;;;7.22;6.07;;;22.30;75.60;;;;;;5073057;28;20032;-80
2021/05/29 07:33:26;;;;;;;8.75;6.95;;;22.00;76.70;;;;;;5072019;28;20025;-80
2021/05/29 07:35:53;;;;;;;8.68;6.55;;;21.90;77.90;;;;;;5073173;28;20047;-80
2021/05/29 07:38:19;;;;;;;7.97;7.10;;;21.70;78.70;;;;;;5071841;28;20111;-79
2021/05/29 07:40:45;;;;;;;8.23;7.13;;;21.60;79.50;;;;;;5071351;28;20055;-79
2021/05/29 07:43:10;;;;;;;8.15;7.35;;;21.50;80.20;;;;;;5072743;28;20023;-80
2021/05/29 07:45:36;;;;;;;8.52;7.47;;;21.50;80.80;;;;;;5073102;28;20020;-80
2021/05/29 07:48:02;;;;;;;9.45;8.25;;;21.40;81.70;;;;;;5075879;28;20037;-80
2021/05/29 07:50:28;;;;;;;8.73;7.80;;;21.30;82.10;;;;;;5082968;28;20078;-80
2021/05/29 07:52:54;;;;;;;9.55;8.15;;;21.30;82.80;;;;;;5071170;28;20020;-80
2021/05/29 07:55:20;;;;;;;11.32;8.70;;;21.30;82.90;;;;;;5071662;28;20459;-79
2021/05/29 07:57:46;;;;;;;9.30;8.30;;;21.30;83.20;;;;;;5071780;28;20433;-79
2021/05/29 08:00:15;;;;;;;10.40;8.60;;;21.30;83.60;;;;;;5071170;28;20444;-79
2021/05/29 08:02:41;;;;;;;9.07;8.18;;;21.40;83.90;;;;;;5071319;28;20029;-80
2021/05/29 08:05:17;;;;;;;9.25;7.95;;;21.50;83.30;;;;;;5088993;28;20386;-79
2021/05/29 08:07:43;;;;;;;8.93;7.07;;;21.50;83.10;;;;;;5082201;28;20028;-79
2021/05/29 08:10:10;;;;;;;9.02;7.50;;;21.60;82.80;;;;;;5071260;28;20407;-79
2021/05/29 08:12:36;;;;;;;11.15;8.07;;;21.80;82.70;;;;;;5070516;28;20048;-80
2021/05/29 08:15:03;;;;;;;8.60;7.45;;;21.90;82.80;;;;;;5071681;28;20052;-79
2021/05/29 08:17:32;;;;;;;8.18;7.05;;;22.00;82.40;;;;;;5074899;28;20033;-80
2021/05/29 08:20:00;;;;;;;7.88;7.07;;;22.20;81.90;;;;;;5072885;28;20060;-80
2021/05/29 08:22:25;;;;;;;7.22;6.30;;;22.40;81.00;;;;;;5087651;28;20031;-79
2021/05/29 08:24:51;;;;;;;8.20;6.65;;;22.50;79.30;;;;;;5090328;28;20474;-79
2021/05/29 08:27:17;;;;;;;8.18;6.20;;;22.80;78.70;;;;;;5074030;28;20116;-79
2021/05/29 08:29:42;;;;;;;7.35;6.13;;;23.20;78.10;;;;;;5076440;28;20424;-80
2021/05/29 08:32:09;;;;;;;8.75;6.07;;;23.50;76.00;;;;;;5072054;28;20033;-80
2021/05/29 08:34:34;;;;;;;8.77;6.20;;;23.80;75.50;;;;;;5075743;28;20215;-80
2021/05/29 08:37:00;;;;;;;7.28;5.93;;;24.30;74.30;;;;;;5074755;28;20077;-80
2021/05/29 08:39:26;;;;;;;9.20;6.72;;;24.80;72.30;;;;;;5075474;28;20451;-80
2021/05/29 08:41:53;;;;;;;7.32;6.35;;;24.90;71.50;;;;;;5070593;28;20167;-80
2021/05/29 08:44:19;;;;;;;7.88;6.75;;;24.80;71.00;;;;;;5070520;28;20020;-80
2021/05/29 08:46:45;;;;;;;8.13;6.40;;;24.60;70.30;;;;;;5080465;28;20536;-80
2021/05/29 08:49:10;;;;;;;8.98;6.32;;;24.50;70.10;;;;;;5076055;28;20040;-80
2021/05/29 08:51:36;;;;;;;7.03;5.80;;;24.50;70.20;;;;;;5076176;28;20040;-79
2021/05/29 08:54:02;;;;;;;7.35;5.80;;;25.00;71.20;;;;;;5076269;28;20054;-80
2021/05/29 08:56:28;;;;;;;8.18;6.50;;;25.50;69.30;;;;;;5077415;28;20028;-80
2021/05/29 08:58:55;;;;;;;8.05;6.78;;;25.80;67.40;;;;;;5082100;28;20441;-80
2021/05/29 09:01:25;;;;;;;8.18;6.28;;;26.00;66.30;;;;;;5073277;28;20063;-80
2021/05/29 09:03:53;;;;;;;7.63;6.60;;;26.10;65.70;;;;;;5079993;28;20390;-78
2021/05/29 09:06:31;;;;;;;6.63;5.50;;;26.10;65.80;;;;;;5074915;28;20028;-79
2021/05/29 09:08:59;;;;;;;6.55;5.60;;;26.30;64.40;;;;;;5073763;28;20017;-79
2021/05/29 09:11:49;;;;;;;7.18;5.70;;;26.40;64.20;;;;;;5074544;28;20033;-78
2021/05/29 09:14:23;;;;;;;8.15;6.60;;;26.70;63.60;;;;;;5091756;28;20039;-79
2021/05/29 09:17:04;;;;;;;6.18;5.47;;;26.70;63.10;;;;;;5074753;28;20487;-79
2021/05/29 09:19:49;;;;;;;7.95;6.75;;;27.10;63.60;;;;;;5078051;28;20384;-79
2021/05/29 09:22:15;;;;;;;9.50;7.28;;;27.40;62.80;;;;;;5081018;28;20024;-79
2021/05/29 09:24:54;;;;;;;9.38;8.43;;;27.60;61.50;;;;;;5081717;28;20107;-80
2021/05/29 09:27:20;;;;;;;9.88;8.32;;;27.30;60.80;;;;;;5086404;28;20028;-79
2021/05/29 09:29:47;;;;;;;9.25;8.30;;;26.80;61.40;;;;;;5092598;28;20493;-78
2021/05/29 09:32:13;;;;;;;8.80;7.88;;;27.20;63.10;;;;;;5098395;28;20088;-78
2021/05/29 09:34:46;;;;;;;9.15;8.25;;;28.00;62.80;;;;;;5112685;28;20031;-71
2021/05/29 09:37:13;;;;;;;8.90;7.95;;;28.80;62.10;;;;;;5113982;28;20032;-71
2021/05/29 09:39:45;;;;;;;9.85;7.88;;;29.40;60.40;;;;;;5107528;28;20036;-78
2021/05/29 09:42:12;;;;;;;8.80;7.90;;;29.90;58.00;;;;;;5094083;28;20370;-71
2021/05/29 09:44:38;;;;;;;9.25;7.68;;;30.20;56.90;;;;;;5112440;28;20024;-71
2021/05/29 09:47:08;;;;;;;8.27;7.38;;;30.60;56.60;;;;;;5113881;28;20030;-71
2021/05/29 09:49:47;;;;;;;7.95;7.15;;;30.80;53.30;;;;;;5113462;28;20027;-72
2021/05/29 09:52:32;;;;;;;9.48;7.45;;;30.60;52.90;;;;;;5113731;28;20031;-71
2021/05/29 09:55:12;;;;;;;8.73;7.82;;;30.50;52.90;;;;;;5113069;28;20024;-72
2021/05/29 09:57:59;;;;;;;8.57;7.75;;;30.30;53.10;;;;;;5110378;28;20027;-71
2021/05/29 10:00:51;;;;;;;10.65;8.35;;;30.00;53.10;;;;;;5089574;28;20376;-79
2021/05/29 10:03:17;;;;;;;8.38;7.55;;;30.10;55.00;;;;;;5088030;28;20028;-71
2021/05/29 10:05:47;;;;;;;9.90;7.97;;;30.40;53.50;;;;;;5086070;28;20104;-71
2021/05/29 10:08:17;;;;;;;9.10;8.20;;;30.40;52.90;;;;;;5078513;28;20027;-71
2021/05/29 10:10:42;;;;;;;8.82;7.30;;;30.60;52.60;;;;;;5077525;28;20047;-71
2021/05/29 10:13:08;;;;;;;11.23;7.70;;;30.70;51.90;;;;;;5079492;28;20021;-71
2021/05/29 10:15:34;;;;;;;8.55;7.53;;;30.90;51.90;;;;;;5080220;28;20112;-71
2021/05/29 10:18:03;;;;;;;10.63;7.60;;;31.20;51.20;;;;;;5080301;28;20027;-71
2021/05/29 10:20:32;;;;;;;9.15;8.25;;;31.40;51.30;;;;;;5076831;28;20055;-73
2021/05/29 10:22:59;;;;;;;10.60;9.05;;;31.50;49.80;;;;;;5083988;28;20056;-71
2021/05/29 10:25:26;;;;;;;11.35;9.18;;;31.60;50.30;;;;;;5078914;28;20107;-71
2021/05/29 10:27:54;;;;;;;10.75;9.27;;;31.80;50.50;;;;;;5074593;28;20048;-71
2021/05/29 10:30:25;;;;;;;10.48;9.15;;;31.90;50.90;;;;;;5090893;28;20062;-71
2021/05/29 10:33:19;;;;;;;11.18;9.52;;;31.90;50.80;;;;;;5098595;28;20066;-71
2021/05/29 10:35:46;;;;;;;10.10;9.10;;;32.00;49.40;;;;;;5077275;28;20024;-71
2021/05/29 10:38:16;;;;;;;10.05;8.30;;;32.00;49.40;;;;;;5086650;28;20056;-71
2021/05/29 10:40:47;;;;;;;10.65;8.73;;;31.90;48.00;;;;;;5080865;28;20028;-71
2021/05/29 10:43:19;;;;;;;11.00;9.50;;;32.00;48.60;;;;;;5103779;28;20412;-71
2021/05/29 10:45:51;;;;;;;11.75;9.77;;;32.10;48.90;;;;;;5096530;28;20119;-77
2021/05/29 10:48:24;;;;;;;10.40;8.35;;;31.80;48.70;;;;;;5102277;28;20433;-71
2021/05/29 10:50:56;;;;;;;8.90;8.00;;;31.50;48.80;;;;;;5089484;28;20068;-71
2021/05/29 10:53:51;;;;;;;8.82;7.60;;;31.50;48.80;;;;;;5108669;28;20024;-71
2021/05/29 10:56:17;;;;;;;10.38;7.68;;;31.60;48.50;;;;;;5077305;28;20043;-71
2021/05/29 10:59:11;;;;;;;9.77;6.75;;;31.70;49.00;;;;;;5097935;28;20112;-71
2021/05/29 11:01:41;;;;;;;8.77;7.43;;;31.70;48.50;;;;;;5083083;28;20069;-71
2021/05/29 11:04:17;;;;;;;7.80;6.70;;;31.60;48.00;;;;;;5103202;28;20114;-70
2021/05/29 11:06:49;;;;;;;9.35;6.50;;;31.30;48.00;;;;;;5095829;27;20059;-80
2021/05/29 11:09:18;;;;;;;7.70;5.95;;;30.90;47.70;;;;;;5097071;28;20425;-80
2021/05/29 11:11:47;;;;;;;8.60;6.70;;;30.30;48.40;;;;;;5073213;28;20360;-80
2021/05/29 11:14:17;;;;;;;8.10;6.40;;;29.90;49.10;;;;;;5084536;28;20023;-80
2021/05/29 11:17:06;;;;;;;8.50;6.35;;;29.40;49.60;;;;;;5073843;28;20543;-80
2021/05/29 11:19:37;;;;;;;9.13;6.80;;;28.80;50.70;;;;;;5072024;28;20044;-79
2021/05/29 11:22:15;;;;;;;10.65;7.50;;;28.30;51.60;;;;;;5076157;28;20032;-80
2021/05/29 11:24:56;;;;;;;11.25;7.60;;;27.70;52.80;;;;;;5079396;28;20040;-80
2021/05/29 11:27:26;;;;;;;11.52;9.32;;;27.10;54.00;;;;;;5079109;28;20359;-79
2021/05/29 11:30:13;;;;;;;11.25;9.48;;;26.50;56.00;;;;;;5088258;27;20059;-79
2021/05/29 11:35:33;;;;;;;14.85;10.40;;;25.50;58.90;;;;;;5088706;28;20028;-79
2021/05/29 11:38:21;;;;;;;11.20;9.43;;;25.20;60.40;;;;;;5082407;28;20035;-79
2021/05/29 11:41:13;;;;;;;11.60;8.50;;;25.00;61.50;;;;;;5075384;28;20119;-79
2021/05/29 11:43:45;;;;;;;12.85;8.80;;;24.90;62.30;;;;;;5089278;28;20044;-79
2021/05/29 11:46:30;;;;;;;10.85;7.47;;;24.70;62.70;;;;;;5078773;28;20082;-80
2021/05/29 11:49:02;;;;;;;8.48;7.45;;;24.50;63.70;;;;;;5098255;28;20533;-79
2021/05/29 11:51:32;;;;;;;10.95;7.57;;;24.50;64.60;;;;;;5083887;28;20479;-80
2021/05/29 11:54:20;;;;;;;9.80;7.25;;;24.60;64.80;;;;;;5082543;28;20060;-80
2021/05/29 11:56:52;;;;;;;9.57;6.72;;;24.70;63.80;;;;;;5080124;28;20085;-79
2021/05/29 11:59:22;;;;;;;9.68;6.97;;;24.70;63.90;;;;;;5084457;28;20051;-79
2021/05/29 12:01:51;;;;;;;7.78;5.88;;;24.80;64.20;;;;;;5088804;28;20508;-79
2021/05/29 12:04:20;;;;;;;7.93;5.82;;;25.00;63.90;;;;;;5083268;28;20047;-79
2021/05/29 12:06:56;;;;;;;8.57;5.97;;;25.20;63.00;;;;;;5086598;28;20032;-80
2021/05/29 12:09:27;;;;;;;7.70;5.68;;;25.10;62.70;;;;;;5077326;28;20020;-80
2021/05/29 12:12:02;;;;;;;7.70;5.20;;;25.10;62.70;;;;;;5072044;28;20060;-79
2021/05/29 12:14:33;;;;;;;6.15;5.18;;;25.00;62.60;;;;;;5072385;28;20023;-80
2021/05/29 12:17:01;;;;;;;8.07;5.57;;;24.90;62.50;;;;;;5084954;28;20032;-80
2021/05/29 12:19:28;;;;;;;6.38;5.32;;;24.80;62.80;;;;;;5072144;28;20433;-79
2021/05/29 12:21:56;;;;;;;7.43;5.45;;;24.70;62.90;;;;;;5072022;28;20032;-79
2021/05/29 12:24:23;;;;;;;7.65;5.50;;;24.60;63.20;;;;;;5071368;28;20034;-79
2021/05/29 12:26:51;;;;;;;7.00;5.03;;;24.60;63.40;;;;;;5072387;28;20099;-79
2021/05/29 12:29:21;;;;;;;7.05;5.30;;;24.70;63.40;;;;;;5072631;28;20107;-80
2021/05/29 12:31:48;;;;;;;6.93;5.00;;;24.80;63.00;;;;;;5072573;28;20029;-80
2021/05/29 12:34:14;;;;;;;7.05;5.00;;;24.90;62.90;;;;;;5071312;28;20032;-81
2021/05/29 12:37:12;;;;;;;7.97;5.80;;;24.90;62.90;;;;;;5073746;28;20029;-80
2021/05/29 12:39:51;;;;;;;6.25;4.70;;;24.90;63.60;;;;;;5063445;28;20037;-81
2021/05/29 12:42:22;;;;;;;6.05;4.30;;;24.90;63.40;;;;;;5078354;28;20032;-80
2021/05/29 12:44:49;;;;;;;6.15;4.45;;;24.90;63.00;;;;;;5080133;28;20031;-79
2021/05/29 12:47:20;;;;;;;5.53;4.40;;;24.70;62.40;;;;;;5079450;28;20077;-79
2021/05/29 12:49:46;;;;;;;5.43;4.22;;;24.60;62.60;;;;;;5077667;28;20025;-79
2021/05/29 12:52:30;;;;;;;5.97;4.03;;;24.50;62.90;;;;;;5077660;28;20029;-80
2021/05/29 12:54:56;;;;;;;5.35;4.20;;;24.60;62.90;;;;;;5077476;28;20520;-80
2021/05/29 12:57:23;;;;;;;6.47;3.95;;;24.60;63.00;;;;;;5077759;28;20028;-80
2021/05/29 12:59:49;;;;;;;4.47;3.67;;;24.50;63.20;;;;;;5083656;28;20069;-81